Time;durP1;ratioP1;P1;durP2;ratioP2;P2;SDS_P1;SDS_P2;PMS_P1;PMS_P2;Temp;Humidity;BMP_temperature;BMP_pressure;BME280_temperature;BME280_humidity;BME280_pressure;Samples;Min_cycle;Max_cycle;Signal;HPM_P1;HPM_P2
2022/08/18 00:02:03;;;;;;;;;;;;;;;;;;4991306;28;19917;-62
2022/08/18 00:04:29;;;;;;;;;;;;;;;;;;4991074;28;19922;-62
2022/08/18 00:06:54;;;;;;;;;;;;;;;;;;4993648;28;19913;-61
2022/08/18 00:09:19;;;;;;;;;;;;;;;;;;4985334;28;20009;-60
2022/08/18 00:11:44;;;;;;;;;;;;;;;;;;4993339;28;19913;-61
2022/08/18 00:14:10;;;;;;;;;;;;;;;;;;4993530;28;19965;-60
2022/08/18 00:16:35;;;;;;;;;;;;;;;;;;4993200;28;19914;-60
2022/08/18 00:19:00;;;;;;;;;;;;;;;;;;5000548;28;20391;-60
2022/08/18 00:21:25;;;;;;;;;;;;;;;;;;4984768;28;19968;-60
2022/08/18 00:23:50;;;;;;;;;;;;;;;;;;4996267;28;19917;-60
2022/08/18 00:26:16;;;;;;;;;;;;;;;;;;5002331;28;20336;-61
2022/08/18 00:28:41;;;;;;;;;;;;;;;;;;5009947;28;19914;-60
2022/08/18 00:31:06;;;;;;;;;;;;;;;;;;5003840;28;19913;-61
2022/08/18 00:33:31;;;;;;;;;;;;;;;;;;5004724;28;19920;-61
2022/08/18 00:35:56;;;;;;;;;;;;;;;;;;4983948;28;19962;-61
2022/08/18 00:38:21;;;;;;;;;;;;;;;;;;4995751;28;19913;-61
2022/08/18 00:40:50;;;;;;;;;;;;;;;;;;5009915;28;19913;-61
2022/08/18 00:43:18;;;;;;;;;;;;;;;;;;5008063;28;19968;-61
2022/08/18 00:45:43;;;;;;;;;;;;;;;;;;5007941;28;19917;-61
2022/08/18 00:48:08;;;;;;;;;;;;;;;;;;4998830;28;19968;-59
2022/08/18 00:50:33;;;;;;;;;;;;;;;;;;4993913;28;19918;-60
2022/08/18 00:52:59;;;;;;;;;;;;;;;;;;4991714;28;20796;-61
2022/08/18 00:55:24;;;;;;;;;;;;;;;;;;4995466;28;19923;-60
2022/08/18 00:57:49;;;;;;;;;;;;;;;;;;5007192;28;20012;-60
2022/08/18 01:00:14;;;;;;;;;;;;;;;;;;5006128;28;19922;-61
2022/08/18 01:02:39;;;;;;;;;;;;;;;;;;4996685;28;19910;-61
2022/08/18 01:05:04;;;;;;;;;;;;;;;;;;5002394;28;19917;-61
2022/08/18 01:07:30;;;;;;;;;;;;;;;;;;4992755;28;19914;-61
2022/08/18 01:09:57;;;;;;;;;;;;;;;;;;4997447;28;19917;-60
2022/08/18 01:12:22;;;;;;;;;;;;;;;;;;5001483;28;19914;-60
2022/08/18 01:14:47;;;;;;;;;;;;;;;;;;5005931;28;19921;-61
2022/08/18 01:22:40;;;;;;;;;;;;;;;;;;4987045;28;20057;-61
2022/08/18 01:27:49;;;;;;;;;;;;;;;;;;4990977;28;20421;-61
2022/08/18 01:30:14;;;;;;;;;;;;;;;;;;4997031;28;19921;-61
2022/08/18 01:32:39;;;;;;;;;;;;;;;;;;4996588;28;19914;-61
2022/08/18 01:35:07;;;;;;;;;;;;;;;;;;4997417;28;20769;-61
2022/08/18 01:37:32;;;;;;;;;;;;;;;;;;5000770;28;19917;-61
2022/08/18 01:39:57;;;;;;;;;;;;;;;;;;4995798;28;19913;-60
2022/08/18 01:42:23;;;;;;;;;;;;;;;;;;4975489;28;19973;-61
2022/08/18 01:44:50;;;;;;;;;;;;;;;;;;4996119;28;19918;-61
2022/08/18 01:47:17;;;;;;;;;;;;;;;;;;4986624;28;19914;-60
2022/08/18 01:49:42;;;;;;;;;;;;;;;;;;4992049;28;19971;-61
2022/08/18 01:52:07;;;;;;;;;;;;;;;;;;4994132;28;19914;-61
2022/08/18 01:54:32;;;;;;;;;;;;;;;;;;4990561;28;19914;-61
2022/08/18 01:56:58;;;;;;;;;;;;;;;;;;4991470;28;19913;-61
2022/08/18 01:59:23;;;;;;;;;;;;;;;;;;4991437;28;19961;-61
2022/08/18 02:01:48;;;;;;;;;;;;;;;;;;4997109;28;19913;-59
2022/08/18 02:04:13;;;;;;;;;;;;;;;;;;5009532;28;19980;-60
2022/08/18 02:06:38;;;;;;;;;;;;;;;;;;5000311;28;19917;-59
2022/08/18 02:09:03;;;;;;;;;;;;;;;;;;4993798;28;19940;-60
2022/08/18 02:11:28;;;;;;;;;;;;;;;;;;4992904;28;19993;-60
2022/08/18 02:13:53;;;;;;;;;;;;;;;;;;4994107;28;20413;-61
2022/08/18 02:16:19;;;;;;;;;;;;;;;;;;4967842;28;20362;-60
2022/08/18 02:18:44;;;;;;;;;;;;;;;;;;4999171;28;20017;-61
2022/08/18 02:21:09;;;;;;;;;;;;;;;;;;4997553;28;19921;-60
2022/08/18 02:23:34;;;;;;;;;;;;;;;;;;4991838;28;21984;-60
2022/08/18 02:25:59;;;;;;;;;;;;;;;;;;4993344;28;19914;-61
2022/08/18 02:28:24;;;;;;;;;;;;;;;;;;4991931;28;20049;-60
2022/08/18 02:30:50;;;;;;;;;;;;;;;;;;4978211;28;19928;-60
2022/08/18 02:33:15;;;;;;;;;;;;;;;;;;4991192;28;19914;-60
2022/08/18 02:35:42;;;;;;;;;;;;;;;;;;5006719;28;20020;-60
2022/08/18 02:38:07;;;;;;;;;;;;;;;;;;5005847;28;20412;-60
2022/08/18 02:40:33;;;;;;;;;;;;;;;;;;4996468;28;19917;-61
2022/08/18 02:42:58;;;;;;;;;;;;;;;;;;5000504;28;19965;-60
2022/08/18 02:45:23;;;;;;;;;;;;;;;;;;4995635;28;19924;-61
2022/08/18 02:47:48;;;;;;;;;;;;;;;;;;5000460;28;19913;-60
2022/08/18 02:50:15;;;;;;;;;;;;;;;;;;4974884;28;19914;-60
2022/08/18 02:52:40;;;;;;;;;;;;;;;;;;4986791;28;20036;-60
2022/08/18 02:55:05;;;;;;;;;;;;;;;;;;4997645;28;19968;-60
2022/08/18 02:57:30;;;;;;;;;;;;;;;;;;5008908;28;19920;-60
2022/08/18 02:59:56;;;;;;;;;;;;;;;;;;5002443;28;19952;-60
2022/08/18 03:02:21;;;;;;;;;;;;;;;;;;5000376;28;20382;-60
2022/08/18 03:04:46;;;;;;;;;;;;;;;;;;5001923;28;20370;-60
2022/08/18 03:07:11;;;;;;;;;;;;;;;;;;5007613;28;19913;-61
2022/08/18 03:09:36;;;;;;;;;;;;;;;;;;5006229;28;19925;-60
2022/08/18 03:12:01;;;;;;;;;;;;;;;;;;4990807;28;19914;-61
2022/08/18 03:14:27;;;;;;;;;;;;;;;;;;4996366;28;19933;-61
2022/08/18 03:16:52;;;;;;;;;;;;;;;;;;4995779;28;19917;-60
2022/08/18 03:19:17;;;;;;;;;;;;;;;;;;4992625;28;20008;-60
2022/08/18 03:21:42;;;;;;;;;;;;;;;;;;4991774;28;19929;-61
2022/08/18 03:24:08;;;;;;;;;;;;;;;;;;4997918;28;19917;-61
2022/08/18 03:26:33;;;;;;;;;;;;;;;;;;4997607;28;20028;-61
2022/08/18 03:28:58;;;;;;;;;;;;;;;;;;4994113;28;20004;-61
2022/08/18 03:31:24;;;;;;;;;;;;;;;;;;5001496;28;19918;-61
2022/08/18 03:33:50;;;;;;;;;;;;;;;;;;5007674;28;20454;-60
2022/08/18 03:36:15;;;;;;;;;;;;;;;;;;4996362;28;20334;-61
2022/08/18 03:38:41;;;;;;;;;;;;;;;;;;5005670;28;19985;-60
2022/08/18 03:41:07;;;;;;;;;;;;;;;;;;5003003;28;19918;-60
2022/08/18 03:43:32;;;;;;;;;;;;;;;;;;5006709;28;19984;-61
2022/08/18 03:45:58;;;;;;;;;;;;;;;;;;5012354;28;19957;-60
2022/08/18 03:48:24;;;;;;;;;;;;;;;;;;5002005;28;20452;-60
2022/08/18 03:50:49;;;;;;;;;;;;;;;;;;4993855;28;19913;-59
2022/08/18 03:53:14;;;;;;;;;;;;;;;;;;4995928;28;20337;-60
2022/08/18 03:55:39;;;;;;;;;;;;;;;;;;5008163;28;19913;-61
2022/08/18 03:58:04;;;;;;;;;;;;;;;;;;5001752;28;20029;-58
2022/08/18 04:00:29;;;;;;;;;;;;;;;;;;4999686;28;19960;-61
2022/08/18 04:02:55;;;;;;;;;;;;;;;;;;5001994;28;20390;-60
2022/08/18 04:05:20;;;;;;;;;;;;;;;;;;4994524;28;19917;-61
2022/08/18 04:07:45;;;;;;;;;;;;;;;;;;5008602;28;19917;-61
2022/08/18 04:10:10;;;;;;;;;;;;;;;;;;5002060;28;20008;-61
2022/08/18 04:12:37;;;;;;;;;;;;;;;;;;5003178;28;19921;-61
2022/08/18 04:15:02;;;;;;;;;;;;;;;;;;5000859;28;19913;-60
2022/08/18 04:17:27;;;;;;;;;;;;;;;;;;4992801;28;20374;-60
2022/08/18 04:19:53;;;;;;;;;;;;;;;;;;4993400;28;19914;-61
2022/08/18 04:22:18;;;;;;;;;;;;;;;;;;4990798;28;20381;-60
2022/08/18 04:24:43;;;;;;;;;;;;;;;;;;4995940;28;19922;-61
2022/08/18 04:27:08;;;;;;;;;;;;;;;;;;4996839;28;20000;-61
2022/08/18 04:29:33;;;;;;;;;;;;;;;;;;4993218;28;20078;-61
2022/08/18 04:31:59;;;;;;;;;;;;;;;;;;4991749;28;19918;-62
2022/08/18 04:34:24;;;;;;;;;;;;;;;;;;4991193;28;19933;-59
2022/08/18 04:36:52;;;;;;;;;;;;;;;;;;4991288;28;20004;-60
2022/08/18 04:39:17;;;;;;;;;;;;;;;;;;4992435;28;19921;-60
2022/08/18 04:41:42;;;;;;;;;;;;;;;;;;4992049;28;20374;-60
2022/08/18 04:44:08;;;;;;;;;;;;;;;;;;4990230;28;19948;-60
2022/08/18 04:46:33;;;;;;;;;;;;;;;;;;4991959;28;19914;-61
2022/08/18 04:48:58;;;;;;;;;;;;;;;;;;4992733;28;20006;-61
2022/08/18 04:51:23;;;;;;;;;;;;;;;;;;4984238;28;20338;-61
2022/08/18 04:53:48;;;;;;;;;;;;;;;;;;4988830;28;20280;-60
2022/08/18 04:56:14;;;;;;;;;;;;;;;;;;4994234;28;19932;-60
2022/08/18 04:58:39;;;;;;;;;;;;;;;;;;4990298;28;20368;-60
2022/08/18 05:01:04;;;;;;;;;;;;;;;;;;4990266;28;19921;-61
2022/08/18 05:03:29;;;;;;;;;;;;;;;;;;4988580;28;19922;-61
2022/08/18 05:05:54;;;;;;;;;;;;;;;;;;4991479;28;20422;-60
2022/08/18 05:08:19;;;;;;;;;;;;;;;;;;4989328;28;19973;-61
2022/08/18 05:10:46;;;;;;;;;;;;;;;;;;4990050;28;20437;-58
2022/08/18 05:13:15;;;;;;;;;;;;;;;;;;4971415;28;19914;-61
2022/08/18 05:15:41;;;;;;;;;;;;;;;;;;4988164;28;19953;-61
2022/08/18 05:18:06;;;;;;;;;;;;;;;;;;4991073;28;19965;-60
2022/08/18 05:20:31;;;;;;;;;;;;;;;;;;4990418;28;20428;-59
2022/08/18 05:22:56;;;;;;;;;;;;;;;;;;4984684;28;19933;-59
2022/08/18 05:25:21;;;;;;;;;;;;;;;;;;4990256;28;19956;-61
2022/08/18 05:27:46;;;;;;;;;;;;;;;;;;4996760;28;19928;-61
2022/08/18 05:30:13;;;;;;;;;;;;;;;;;;5004583;28;19960;-61
2022/08/18 05:32:38;;;;;;;;;;;;;;;;;;4982226;28;19921;-61
2022/08/18 05:35:04;;;;;;;;;;;;;;;;;;4996096;28;19922;-61
2022/08/18 05:37:31;;;;;;;;;;;;;;;;;;4995715;28;19975;-60
2022/08/18 05:39:56;;;;;;;;;;;;;;;;;;4988626;28;19918;-64
2022/08/18 05:42:21;;;;;;;;;;;;;;;;;;5008170;28;19920;-66
2022/08/18 05:44:46;;;;;;;;;;;;;;;;;;4996957;28;19918;-63
2022/08/18 05:47:11;;;;;;;;;;;;;;;;;;4989769;28;19914;-64
2022/08/18 05:49:36;;;;;;;;;;;;;;;;;;4991269;28;19922;-63
2022/08/18 05:52:02;;;;;;;;;;;;;;;;;;4990014;28;19964;-64
2022/08/18 05:57:11;;;;;;;;;;;;;;;;;;4992374;28;19983;-65
2022/08/18 05:59:36;;;;;;;;;;;;;;;;;;4992889;28;20016;-62
2022/08/18 06:02:01;;;;;;;;;;;;;;;;;;4999119;28;19913;-64
2022/08/18 06:04:28;;;;;;;;;;;;;;;;;;5006074;28;20150;-63
2022/08/18 06:06:53;;;;;;;;;;;;;;;;;;4998708;28;19914;-63
2022/08/18 06:09:19;;;;;;;;;;;;;;;;;;4995037;28;19920;-65
2022/08/18 06:11:44;;;;;;;;;;;;;;;;;;4982995;28;19992;-64
2022/08/18 06:14:09;;;;;;;;;;;;;;;;;;4999919;28;19914;-64
2022/08/18 06:16:34;;;;;;;;;;;;;;;;;;5000744;28;20412;-64
2022/08/18 06:18:59;;;;;;;;;;;;;;;;;;4989499;28;19914;-64
2022/08/18 06:21:25;;;;;;;;;;;;;;;;;;4990590;28;19981;-65
2022/08/18 06:23:50;;;;;;;;;;;;;;;;;;4994369;28;19941;-65
2022/08/18 06:26:15;;;;;;;;;;;;;;;;;;4996901;28;19961;-64
2022/08/18 06:28:40;;;;;;;;;;;;;;;;;;4996262;28;19924;-64
2022/08/18 06:31:06;;;;;;;;;;;;;;;;;;4997746;28;19914;-65
2022/08/18 06:33:31;;;;;;;;;;;;;;;;;;5008656;28;19916;-65
2022/08/18 06:35:59;;;;;;;;;;;;;;;;;;5016532;28;20350;-65
2022/08/18 06:38:39;;;;;;;;;;;;;;;;;;4997381;28;19913;-63
2022/08/18 06:41:05;;;;;;;;;;;;;;;;;;4974632;28;20363;-66
2022/08/18 06:43:31;;;;;;;;;;;;;;;;;;4995461;28;19925;-63
2022/08/18 06:45:56;;;;;;;;;;;;;;;;;;5003691;28;20009;-64
2022/08/18 06:48:21;;;;;;;;;;;;;;;;;;4996056;28;19961;-63
2022/08/18 06:50:46;;;;;;;;;;;;;;;;;;4994595;28;19945;-64
2022/08/18 06:53:11;;;;;;;;;;;;;;;;;;4990481;28;19914;-64
2022/08/18 06:55:36;;;;;;;;;;;;;;;;;;4995788;28;20444;-64
2022/08/18 06:58:02;;;;;;;;;;;;;;;;;;4974518;28;20371;-64
2022/08/18 07:00:27;;;;;;;;;;;;;;;;;;4990377;28;19921;-64
2022/08/18 07:02:53;;;;;;;;;;;;;;;;;;4996279;28;20282;-63
2022/08/18 07:05:19;;;;;;;;;;;;;;;;;;5015565;28;20334;-63
2022/08/18 07:07:44;;;;;;;;;;;;;;;;;;4997561;28;19924;-64
2022/08/18 07:10:09;;;;;;;;;;;;;;;;;;4997802;28;19910;-63
2022/08/18 07:12:34;;;;;;;;;;;;;;;;;;4993463;28;19945;-64
2022/08/18 07:14:59;;;;;;;;;;;;;;;;;;4995909;28;19910;-64
2022/08/18 07:17:25;;;;;;;;;;;;;;;;;;5004616;28;19921;-63
2022/08/18 07:19:50;;;;;;;;;;;;;;;;;;5015164;28;20387;-64
2022/08/18 07:22:17;;;;;;;;;;;;;;;;;;4998776;28;19938;-64
2022/08/18 07:24:42;;;;;;;;;;;;;;;;;;4991153;28;19918;-64
2022/08/18 07:27:07;;;;;;;;;;;;;;;;;;4995594;28;19959;-63
2022/08/18 07:29:32;;;;;;;;;;;;;;;;;;4995570;28;20290;-64
2022/08/18 07:31:57;;;;;;;;;;;;;;;;;;4994490;28;19910;-63
2022/08/18 07:34:25;;;;;;;;;;;;;;;;;;5013770;28;20513;-65
2022/08/18 07:36:51;;;;;;;;;;;;;;;;;;5014940;28;19910;-64
2022/08/18 07:39:16;;;;;;;;;;;;;;;;;;5007828;28;20380;-65
2022/08/18 07:41:41;;;;;;;;;;;;;;;;;;4995612;28;20433;-64
2022/08/18 07:44:07;;;;;;;;;;;;;;;;;;4988888;28;19930;-63
2022/08/18 07:46:34;;;;;;;;;;;;;;;;;;4995008;28;19914;-64
2022/08/18 07:48:59;;;;;;;;;;;;;;;;;;4995276;28;20294;-63
2022/08/18 07:51:24;;;;;;;;;;;;;;;;;;4992855;28;19921;-63
2022/08/18 07:53:49;;;;;;;;;;;;;;;;;;4992805;28;19913;-64
2022/08/18 07:56:15;;;;;;;;;;;;;;;;;;4991374;28;19921;-63
2022/08/18 07:58:40;;;;;;;;;;;;;;;;;;4992865;28;19968;-64
2022/08/18 08:01:05;;;;;;;;;;;;;;;;;;4995140;28;19918;-63
2022/08/18 08:03:30;;;;;;;;;;;;;;;;;;4994888;28;19914;-64
2022/08/18 08:05:56;;;;;;;;;;;;;;;;;;5001092;28;19918;-68
2022/08/18 08:08:21;;;;;;;;;;;;;;;;;;4984832;28;19922;-69
2022/08/18 08:10:48;;;;;;;;;;;;;;;;;;4988926;28;19914;-66
2022/08/18 08:13:14;;;;;;;;;;;;;;;;;;4991619;28;19925;-64
2022/08/18 08:15:39;;;;;;;;;;;;;;;;;;4997263;28;19914;-63
2022/08/18 08:18:04;;;;;;;;;;;;;;;;;;4984415;28;19930;-62
2022/08/18 08:20:30;;;;;;;;;;;;;;;;;;4994727;28;20013;-63
2022/08/18 08:22:55;;;;;;;;;;;;;;;;;;4990064;28;19933;-62
2022/08/18 08:25:20;;;;;;;;;;;;;;;;;;4992411;28;20019;-63
2022/08/18 08:27:46;;;;;;;;;;;;;;;;;;4976393;28;19914;-62
2022/08/18 08:30:11;;;;;;;;;;;;;;;;;;4992089;28;19925;-61
2022/08/18 08:32:36;;;;;;;;;;;;;;;;;;4990050;28;20442;-62
2022/08/18 08:35:01;;;;;;;;;;;;;;;;;;4994462;28;20449;-63
2022/08/18 08:37:26;;;;;;;;;;;;;;;;;;4991356;28;19914;-63
2022/08/18 08:39:53;;;;;;;;;;;;;;;;;;4991732;28;19921;-62
2022/08/18 08:42:19;;;;;;;;;;;;;;;;;;4994445;28;19941;-63
2022/08/18 08:44:45;;;;;;;;;;;;;;;;;;4992394;28;19926;-62
2022/08/18 08:47:10;;;;;;;;;;;;;;;;;;4986972;28;19914;-62
2022/08/18 08:49:36;;;;;;;;;;;;;;;;;;4989686;28;19914;-62
2022/08/18 08:52:01;;;;;;;;;;;;;;;;;;4985081;28;20275;-63
2022/08/18 08:54:26;;;;;;;;;;;;;;;;;;4990067;28;20000;-64
2022/08/18 08:56:51;;;;;;;;;;;;;;;;;;4987954;28;19921;-64
2022/08/18 08:59:16;;;;;;;;;;;;;;;;;;4982242;28;19953;-64
2022/08/18 09:01:41;;;;;;;;;;;;;;;;;;4993241;28;20494;-62
2022/08/18 09:04:06;;;;;;;;;;;;;;;;;;4994009;28;19913;-64
2022/08/18 09:06:32;;;;;;;;;;;;;;;;;;4989916;28;19925;-64
2022/08/18 09:08:58;;;;;;;;;;;;;;;;;;4989036;28;20016;-63
2022/08/18 09:11:25;;;;;;;;;;;;;;;;;;4991301;28;20016;-64
2022/08/18 09:13:50;;;;;;;;;;;;;;;;;;4992879;28;19914;-64
2022/08/18 09:16:15;;;;;;;;;;;;;;;;;;4984659;28;19937;-64
2022/08/18 09:18:43;;;;;;;;;;;;;;;;;;5012670;28;20028;-65
2022/08/18 09:21:08;;;;;;;;;;;;;;;;;;5011952;28;19914;-63
2022/08/18 09:23:34;;;;;;;;;;;;;;;;;;4992558;28;19941;-64
2022/08/18 09:25:59;;;;;;;;;;;;;;;;;;5011139;28;19972;-65
2022/08/18 09:28:26;;;;;;;;;;;;;;;;;;5013316;28;19948;-64
2022/08/18 09:30:52;;;;;;;;;;;;;;;;;;5011931;28;19913;-63
2022/08/18 09:33:18;;;;;;;;;;;;;;;;;;5013124;28;20389;-64
2022/08/18 09:35:43;;;;;;;;;;;;;;;;;;5012347;28;19909;-64
2022/08/18 09:43:38;;;;;;;;;;;;;;;;;;5012340;28;19920;-63
2022/08/18 09:46:04;;;;;;;;;;;;;;;;;;5010586;28;19924;-65
2022/08/18 09:48:29;;;;;;;;;;;;;;;;;;4998150;28;19914;-63
2022/08/18 09:50:55;;;;;;;;;;;;;;;;;;5012254;28;20290;-61
2022/08/18 09:53:20;;;;;;;;;;;;;;;;;;5006549;28;19913;-64
2022/08/18 09:55:45;;;;;;;;;;;;;;;;;;5009545;28;20468;-64
2022/08/18 09:58:11;;;;;;;;;;;;;;;;;;5007678;28;19940;-65
2022/08/18 10:00:37;;;;;;;;;;;;;;;;;;5012375;28;19925;-65
2022/08/18 10:03:02;;;;;;;;;;;;;;;;;;5012143;28;19913;-63
2022/08/18 10:05:27;;;;;;;;;;;;;;;;;;5010791;28;20289;-62
2022/08/18 10:07:53;;;;;;;;;;;;;;;;;;5005046;28;19914;-60
2022/08/18 10:10:18;;;;;;;;;;;;;;;;;;5003976;28;19924;-60
2022/08/18 10:12:43;;;;;;;;;;;;;;;;;;5012795;28;19910;-61
2022/08/18 10:15:08;;;;;;;;;;;;;;;;;;5007335;28;20273;-60
2022/08/18 10:17:33;;;;;;;;;;;;;;;;;;5002051;28;20375;-61
2022/08/18 10:19:59;;;;;;;;;;;;;;;;;;4992583;28;20219;-60
2022/08/18 10:22:25;;;;;;;;;;;;;;;;;;4991403;28;19949;-58
2022/08/18 10:24:50;;;;;;;;;;;;;;;;;;4993070;28;19987;-61
2022/08/18 10:27:15;;;;;;;;;;;;;;;;;;4991424;28;20458;-60
2022/08/18 10:29:40;;;;;;;;;;;;;;;;;;4992752;28;19910;-62
2022/08/18 10:32:07;;;;;;;;;;;;;;;;;;5001933;28;20429;-61
2022/08/18 10:34:32;;;;;;;;;;;;;;;;;;4998105;28;19910;-60
2022/08/18 10:36:57;;;;;;;;;;;;;;;;;;4989437;28;19925;-61
2022/08/18 10:39:22;;;;;;;;;;;;;;;;;;4994335;28;20371;-61
2022/08/18 10:41:47;;;;;;;;;;;;;;;;;;4992094;28;19914;-60
2022/08/18 10:44:12;;;;;;;;;;;;;;;;;;4992855;28;20430;-60
2022/08/18 10:46:37;;;;;;;;;;;;;;;;;;4996126;28;20366;-60
2022/08/18 10:49:04;;;;;;;;;;;;;;;;;;4992231;28;19918;-61
2022/08/18 10:51:29;;;;;;;;;;;;;;;;;;4989068;28;20012;-61
2022/08/18 10:53:54;;;;;;;;;;;;;;;;;;4991666;28;20434;-61
2022/08/18 10:56:19;;;;;;;;;;;;;;;;;;4984222;28;20363;-61
2022/08/18 10:58:44;;;;;;;;;;;;;;;;;;4988210;28;19922;-61
2022/08/18 11:01:09;;;;;;;;;;;;;;;;;;4998289;28;20497;-61
2022/08/18 11:03:34;;;;;;;;;;;;;;;;;;5006702;28;20516;-61
2022/08/18 11:06:00;;;;;;;;;;;;;;;;;;4988282;28;20374;-61
2022/08/18 11:08:25;;;;;;;;;;;;;;;;;;4995575;28;20030;-61
2022/08/18 11:10:50;;;;;;;;;;;;;;;;;;4994352;28;20262;-61
2022/08/18 11:13:15;;;;;;;;;;;;;;;;;;5000638;28;19914;-61
2022/08/18 11:15:40;;;;;;;;;;;;;;;;;;5004074;28;19925;-61
2022/08/18 11:18:05;;;;;;;;;;;;;;;;;;4991301;28;19937;-61
2022/08/18 11:20:31;;;;;;;;;;;;;;;;;;5014477;28;19910;-60
2022/08/18 11:22:56;;;;;;;;;;;;;;;;;;5006148;28;19920;-61
2022/08/18 11:25:21;;;;;;;;;;;;;;;;;;5014553;28;19913;-60
2022/08/18 11:27:46;;;;;;;;;;;;;;;;;;5010268;28;19975;-60
2022/08/18 11:30:11;;;;;;;;;;;;;;;;;;5013087;28;19925;-61
2022/08/18 11:32:36;;;;;;;;;;;;;;;;;;5011282;28;19921;-61
2022/08/18 11:35:02;;;;;;;;;;;;;;;;;;5003908;28;19917;-61
2022/08/18 11:37:27;;;;;;;;;;;;;;;;;;5002108;28;19918;-61
2022/08/18 11:39:52;;;;;;;;;;;;;;;;;;5012913;28;19920;-62
2022/08/18 11:42:17;;;;;;;;;;;;;;;;;;5015160;28;19910;-62
2022/08/18 11:44:42;;;;;;;;;;;;;;;;;;5014642;28;19956;-61
2022/08/18 11:47:08;;;;;;;;;;;;;;;;;;5014071;28;20365;-61
2022/08/18 11:49:33;;;;;;;;;;;;;;;;;;5012350;28;19956;-61
2022/08/18 11:51:58;;;;;;;;;;;;;;;;;;5002758;28;19919;-61
2022/08/18 11:54:24;;;;;;;;;;;;;;;;;;5012889;28;19913;-62
2022/08/18 11:56:49;;;;;;;;;;;;;;;;;;5013319;28;20184;-62
2022/08/18 11:59:15;;;;;;;;;;;;;;;;;;5011819;28;19917;-61
2022/08/18 12:01:40;;;;;;;;;;;;;;;;;;5011208;28;19918;-61
2022/08/18 12:04:05;;;;;;;;;;;;;;;;;;5013088;28;20052;-62
2022/08/18 12:06:30;;;;;;;;;;;;;;;;;;5014131;28;19910;-61
2022/08/18 12:08:55;;;;;;;;;;;;;;;;;;4987529;28;20334;-61
2022/08/18 12:11:20;;;;;;;;;;;;;;;;;;5010828;28;20048;-60
2022/08/18 12:13:45;;;;;;;;;;;;;;;;;;5003924;28;19913;-61
2022/08/18 12:16:11;;;;;;;;;;;;;;;;;;5007591;28;19910;-59
2022/08/18 12:18:36;;;;;;;;;;;;;;;;;;4994826;28;20404;-61
2022/08/18 12:21:01;;;;;;;;;;;;;;;;;;5012122;28;19917;-61
2022/08/18 12:23:27;;;;;;;;;;;;;;;;;;5002759;28;19920;-61
2022/08/18 12:25:52;;;;;;;;;;;;;;;;;;5018342;28;19917;-61
2022/08/18 12:28:17;;;;;;;;;;;;;;;;;;5013519;28;20373;-61
2022/08/18 12:30:42;;;;;;;;;;;;;;;;;;5017572;28;19918;-63
2022/08/18 12:33:07;;;;;;;;;;;;;;;;;;5007747;28;20392;-62
2022/08/18 12:35:32;;;;;;;;;;;;;;;;;;5006626;28;19965;-62
2022/08/18 12:37:58;;;;;;;;;;;;;;;;;;5008562;28;20384;-62
2022/08/18 12:40:23;;;;;;;;;;;;;;;;;;5009074;28;19924;-63
2022/08/18 12:42:48;;;;;;;;;;;;;;;;;;5004058;28;20313;-62
2022/08/18 12:45:13;;;;;;;;;;;;;;;;;;5000470;28;20359;-63
2022/08/18 12:47:38;;;;;;;;;;;;;;;;;;5012133;28;19968;-63
2022/08/18 12:50:03;;;;;;;;;;;;;;;;;;5010692;28;20258;-63
2022/08/18 12:52:28;;;;;;;;;;;;;;;;;;5002964;28;19921;-62
2022/08/18 12:54:54;;;;;;;;;;;;;;;;;;5012460;28;19921;-62
2022/08/18 12:57:19;;;;;;;;;;;;;;;;;;5012540;28;19921;-62
2022/08/18 12:59:45;;;;;;;;;;;;;;;;;;5011227;28;19933;-62
2022/08/18 13:02:10;;;;;;;;;;;;;;;;;;5009238;28;19913;-63
2022/08/18 13:04:35;;;;;;;;;;;;;;;;;;5010784;28;20373;-63
2022/08/18 13:07:02;;;;;;;;;;;;;;;;;;5001681;28;19917;-63
2022/08/18 13:09:27;;;;;;;;;;;;;;;;;;5002521;28;20000;-63
2022/08/18 13:11:53;;;;;;;;;;;;;;;;;;5012283;28;19996;-63
2022/08/18 13:14:18;;;;;;;;;;;;;;;;;;5008563;28;19976;-63
2022/08/18 13:16:44;;;;;;;;;;;;;;;;;;5011756;28;19968;-62
2022/08/18 13:19:09;;;;;;;;;;;;;;;;;;5013732;28;19909;-63
2022/08/18 13:21:35;;;;;;;;;;;;;;;;;;5007706;28;20289;-63
2022/08/18 13:24:00;;;;;;;;;;;;;;;;;;5005621;28;20650;-62
2022/08/18 13:26:25;;;;;;;;;;;;;;;;;;4999619;28;19914;-63
2022/08/18 13:28:50;;;;;;;;;;;;;;;;;;5006908;28;19921;-62
2022/08/18 13:31:15;;;;;;;;;;;;;;;;;;5009238;28;19965;-63
2022/08/18 13:33:41;;;;;;;;;;;;;;;;;;5002760;28;19913;-62
2022/08/18 13:36:06;;;;;;;;;;;;;;;;;;5007209;28;19944;-63
2022/08/18 13:38:31;;;;;;;;;;;;;;;;;;5000937;28;19921;-63
2022/08/18 13:40:56;;;;;;;;;;;;;;;;;;5009815;28;19918;-63
2022/08/18 13:43:22;;;;;;;;;;;;;;;;;;5008825;28;20007;-63
2022/08/18 13:45:48;;;;;;;;;;;;;;;;;;5012092;28;19947;-63
2022/08/18 13:48:14;;;;;;;;;;;;;;;;;;4994693;28;20370;-62
2022/08/18 13:50:39;;;;;;;;;;;;;;;;;;5012034;28;19913;-62
2022/08/18 13:53:04;;;;;;;;;;;;;;;;;;5001906;28;19953;-63
2022/08/18 13:55:29;;;;;;;;;;;;;;;;;;4993363;28;19940;-63
2022/08/18 13:57:54;;;;;;;;;;;;;;;;;;5020531;28;19963;-63
2022/08/18 14:00:19;;;;;;;;;;;;;;;;;;5020034;28;19917;-63
2022/08/18 14:02:46;;;;;;;;;;;;;;;;;;4997781;28;19914;-62
2022/08/18 14:05:11;;;;;;;;;;;;;;;;;;5005829;28;19956;-63
2022/08/18 14:07:37;;;;;;;;;;;;;;;;;;5011619;28;19967;-63
2022/08/18 14:10:02;;;;;;;;;;;;;;;;;;5009180;28;19914;-63
2022/08/18 14:12:27;;;;;;;;;;;;;;;;;;5008045;28;20056;-62
2022/08/18 14:14:52;;;;;;;;;;;;;;;;;;4990091;28;19922;-65
2022/08/18 14:17:17;;;;;;;;;;;;;;;;;;5004950;28;19975;-63
2022/08/18 14:27:54;;;;;;;;;;;;;;;;;;5001324;28;20870;-63
2022/08/18 14:30:19;;;;;;;;;;;;;;;;;;4994156;28;20004;-64
2022/08/18 14:32:45;;;;;;;;;;;;;;;;;;4999538;28;19922;-63
2022/08/18 14:35:10;;;;;;;;;;;;;;;;;;5007244;28;19924;-62
2022/08/18 14:37:35;;;;;;;;;;;;;;;;;;4989417;28;20000;-62
2022/08/18 14:40:00;;;;;;;;;;;;;;;;;;5017926;28;20353;-63
2022/08/18 14:42:25;;;;;;;;;;;;;;;;;;5010242;28;20410;-62
2022/08/18 14:44:51;;;;;;;;;;;;;;;;;;5010597;28;19917;-63
2022/08/18 14:47:16;;;;;;;;;;;;;;;;;;5007031;28;20289;-63
2022/08/18 14:49:42;;;;;;;;;;;;;;;;;;5012383;28;19910;-63
2022/08/18 14:52:07;;;;;;;;;;;;;;;;;;5009819;28;20000;-63
2022/08/18 14:54:32;;;;;;;;;;;;;;;;;;5010872;28;20001;-63
2022/08/18 14:56:58;;;;;;;;;;;;;;;;;;5014260;28;19996;-63
2022/08/18 14:59:24;;;;;;;;;;;;;;;;;;5013093;28;20370;-63
2022/08/18 15:01:49;;;;;;;;;;;;;;;;;;5013116;28;19913;-62
2022/08/18 15:04:15;;;;;;;;;;;;;;;;;;5012713;28;19920;-63
2022/08/18 15:06:40;;;;;;;;;;;;;;;;;;4992314;28;19929;-63
2022/08/18 15:09:06;;;;;;;;;;;;;;;;;;4995723;28;19922;-62
2022/08/18 15:11:32;;;;;;;;;;;;;;;;;;4988447;28;20392;-63
2022/08/18 15:13:58;;;;;;;;;;;;;;;;;;4992496;28;20058;-63
2022/08/18 15:16:23;;;;;;;;;;;;;;;;;;5001522;28;19945;-63
2022/08/18 15:18:49;;;;;;;;;;;;;;;;;;5008074;28;20385;-62
2022/08/18 15:26:42;;;;;;;;;;;;;;;;;;4997778;28;19924;-63
2022/08/18 15:29:07;;;;;;;;;;;;;;;;;;5003826;28;20082;-63
2022/08/18 15:31:33;;;;;;;;;;;;;;;;;;4996014;28;19932;-63
2022/08/18 15:33:58;;;;;;;;;;;;;;;;;;4997841;28;19913;-63
2022/08/18 15:36:23;;;;;;;;;;;;;;;;;;5006027;28;19965;-63
2022/08/18 15:38:50;;;;;;;;;;;;;;;;;;5000824;28;20369;-62
2022/08/18 15:41:15;;;;;;;;;;;;;;;;;;4989632;28;19917;-62
2022/08/18 15:43:42;;;;;;;;;;;;;;;;;;5002089;28;19946;-62
2022/08/18 15:46:07;;;;;;;;;;;;;;;;;;4998581;28;20278;-63
2022/08/18 15:48:32;;;;;;;;;;;;;;;;;;4996465;28;19913;-62
2022/08/18 15:50:57;;;;;;;;;;;;;;;;;;5008831;28;19964;-62
2022/08/18 15:53:24;;;;;;;;;;;;;;;;;;4991209;28;19936;-63
2022/08/18 15:55:49;;;;;;;;;;;;;;;;;;4990677;28;19967;-63
2022/08/18 15:58:14;;;;;;;;;;;;;;;;;;4994366;28;20005;-63
2022/08/18 16:00:41;;;;;;;;;;;;;;;;;;4993393;28;19914;-63
2022/08/18 16:03:06;;;;;;;;;;;;;;;;;;4993762;28;20387;-62
2022/08/18 16:05:31;;;;;;;;;;;;;;;;;;4998789;28;19925;-63
2022/08/18 16:07:57;;;;;;;;;;;;;;;;;;4997361;28;19975;-62
2022/08/18 16:10:22;;;;;;;;;;;;;;;;;;4996167;28;19914;-62
2022/08/18 16:12:47;;;;;;;;;;;;;;;;;;4993523;28;19917;-61
2022/08/18 16:15:14;;;;;;;;;;;;;;;;;;4989408;28;19920;-62
2022/08/18 16:17:39;;;;;;;;;;;;;;;;;;4993906;28;20302;-62
2022/08/18 16:20:04;;;;;;;;;;;;;;;;;;4987614;28;19920;-63
2022/08/18 16:22:31;;;;;;;;;;;;;;;;;;4985738;28;19924;-63
2022/08/18 16:24:56;;;;;;;;;;;;;;;;;;4992047;28;19929;-63
2022/08/18 16:27:21;;;;;;;;;;;;;;;;;;4991435;28;19921;-63
2022/08/18 16:29:47;;;;;;;;;;;;;;;;;;4989131;28;19914;-63
2022/08/18 16:32:12;;;;;;;;;;;;;;;;;;4994376;28;19914;-63
2022/08/18 16:34:38;;;;;;;;;;;;;;;;;;4992078;28;19957;-62
2022/08/18 16:37:03;;;;;;;;;;;;;;;;;;4989720;28;20267;-62
2022/08/18 16:39:32;;;;;;;;;;;;;;;;;;4976094;28;19920;-62
2022/08/18 16:41:57;;;;;;;;;;;;;;;;;;4977319;28;20397;-63
2022/08/18 16:44:23;;;;;;;;;;;;;;;;;;4979794;28;19918;-62
2022/08/18 16:46:50;;;;;;;;;;;;;;;;;;4983067;28;19910;-63
2022/08/18 16:49:16;;;;;;;;;;;;;;;;;;4990328;28;20024;-62
2022/08/18 16:51:44;;;;;;;;;;;;;;;;;;4986803;28;20008;-63
2022/08/18 16:54:09;;;;;;;;;;;;;;;;;;4979337;28;19918;-63
2022/08/18 16:56:34;;;;;;;;;;;;;;;;;;4990013;28;20579;-63
2022/08/18 17:04:33;;;;;;;;;;;;;;;;;;4987897;28;19950;-62
2022/08/18 17:06:58;;;;;;;;;;;;;;;;;;4990801;28;19920;-63
2022/08/18 17:09:24;;;;;;;;;;;;;;;;;;4988691;28;19914;-61